• Join FlightAware (Why Join?)
  • Login
  • US Flag 
Rudolph Flight #1: Arrived! 
03:39AM EST


 

Airport Tracker/Info


-or-


 

Live Flight TrackerFlight Track Log ✈ GLA61C ✈ 25-Apr-2013 ✈ KCEZ - KDEN

Flight Track Log - Related Links

Times and Time Zones

All times are in EDT time to prevent confusion due to time zone crossing. See the GLA61C flight status page for this flight to view local times or setup timezone preferences in your user account.

Time Position Orientation Groundspeed Altitude Reporting Facility
EDT Latitude Longitude Course Direction KTS MPH feet Rate Location/Type
07:57AM 37.3611 -108.5722 38° Northeast 147 169 8,700  Level Denver Center
07:58AM 37.6030 -108.2063 48° Northeast  Level FlightAware Approximate
07:58AM 37.4028 -108.5303 39° Northeast 194 223 10,500  Level Denver Center
07:59AM 37.6531 -108.1371 48° Northeast  Level FlightAware Approximate
07:59AM 37.4458 -108.4861 39° Northeast 202 232 12,600  Level Denver Center
08:00AM 37.7031 -108.0678 48° Northeast  Level FlightAware Approximate
08:00AM 37.4878 -108.4189 52° Northeast 208 239 14,300  Level Denver Center
08:01AM 37.7531 -107.9985 48° Northeast  Level FlightAware Approximate
08:01AM 37.5281 -108.3481 54° Northeast 243 280 16,000  Level Denver Center
08:02AM 37.8036 -107.9297 38° Northeast  Level FlightAware Approximate
08:02AM 37.5767 -108.2889 44° Northeast 253 291 17,500  Level Denver Center
08:03AM 37.6256 -108.2125 51° Northeast 251 289 19,200 1,440 Climbing Denver Center
08:04AM 37.6725 -108.1453 49° Northeast 262 302 20,400 1,140 Climbing Denver Center
08:05AM 37.7183 -108.0792 49° Northeast 261 300 21,500 1,140 Climbing Denver Center
08:06AM 37.7667 -108.0139 47° Northeast 265 305 22,800 1,380 Climbing Denver Center
08:07AM 37.8206 -107.9389 48° Northeast 259 298 24,300 1,020 Climbing Denver Center
08:08AM 37.8661 -107.8742 48° Northeast 256 295 24,900 240 Climbing Denver Center
08:09AM 37.9156 -107.7983 50° Northeast 280 322 24,900  Level Denver Center
08:10AM 37.9822 -107.7031 48° Northeast 317 365 25,000  Climbing Denver Center
08:11AM 38.0400 -107.6250 47° Northeast 317 365 25,000 -60 Level Denver Center
08:12AM 38.1017 -107.5397 47° Northeast 318 366 24,900 -60 Descending Denver Center
08:13AM 38.1561 -107.4608 49° Northeast 312 359 24,900  Level Denver Center
08:14AM 38.2094 -107.3806 50° Northeast 311 358 24,900  Level Denver Center
08:15AM 38.2756 -107.2950 45° Northeast 304 350 24,900  Level Denver Center
08:16AM 38.3283 -107.2144 50° Northeast 308 354 24,900  Level Denver Center
08:17AM 38.3883 -107.1289 48° Northeast 316 364 24,900  Level Denver Center
08:18AM 38.4497 -107.0461 47° Northeast 321 369 24,900  Level Denver Center
08:19AM 38.4847 -106.9383 67° East 325 374 24,900  Level Denver Center
08:20AM 38.5247 -106.8322 64° Northeast 331 381 25,000  Climbing Denver Center
08:21AM 38.5625 -106.7217 66° East 337 388 25,000 -60 Level Denver Center
08:22AM 38.5972 -106.6147 67° East 332 382 24,900 -60 Descending Denver Center
08:23AM 38.6275 -106.5025 71° East 333 383 24,900  Level Denver Center
08:24AM 38.6625 -106.3928 68° East 334 384 24,900  Level Denver Center
08:25AM 38.6986 -106.2842 67° East 333 383 24,900  Level Denver Center
08:26AM 38.7364 -106.1725 67° East 334 384 24,900  Level Denver Center
08:27AM 38.7722 -106.0700 66° East 331 381 25,000  Climbing Denver Center
08:28AM 38.8289 -105.9586 57° Northeast 331 381 25,000 -240 Level Denver Center
08:29AM 38.8825 -105.8628 54° Northeast 327 376 24,600 -960 Descending Denver Center
08:30AM 38.9353 -105.7883 48° Northeast 320 368 23,100 -1,680 Descending Denver Center
08:31AM 39.0056 -105.6944 46° Northeast 324 373 21,300 -2,160 Descending Denver Center
08:32AM 39.0600 -105.6244 45° Northeast 308 354 18,800 -2,160 Descending Denver Center
08:33AM 39.1186 -105.5494 45° Northeast 308 354 17,000 -1,380 Descending Denver Center
08:34AM 39.1808 -105.4456 52° Northeast 320 368 16,100 -540 Descending Denver Center
08:35AM 39.2275 -105.3444 59° Northeast 326 375 16,000  Descending Denver Center
08:36AM 39.2878 -105.2431 52° Northeast 329 379 16,100 -540 Climbing Denver Center
08:37AM 39.3442 -105.1525 51° Northeast 327 376 15,000 -1,380 Descending Denver Center
08:38AM 39.4039 -105.0739 45° Northeast 309 356 13,300 -1,080 Descending Denver Center
08:39AM 39.4672 -105.0017 41° Northeast 304 350 12,900 -180 Descending Denver Center
08:40AM 39.5331 -104.9394 36° Northeast 292 336 13,000 60 Climbing Denver Center
08:41AM 39.6056 -104.8825 31° Northeast 281 323 13,100  Climbing Denver Center
08:42AM 39.6611 -104.8153 43° Northeast 282 325 13,000 -120 Descending Denver Center
08:43AM 39.7186 -104.7472 42° Northeast 271 312 12,900 -600 Descending Denver Center
08:44AM 39.7717 -104.6819 43° Northeast 262 302 11,900 -1,140 Descending Denver Center
08:45AM 39.7744 -104.5883 88° East 244 281 10,600 -540 Descending Denver Center
08:46AM 39.7697 -104.5003 94° East 244 281 10,900 -540 Climbing Denver Center
08:47AM 39.7686 -104.4147 91° East 236 272 9,600 -1,200 Descending Denver Center
08:48AM 39.8136 -104.3697 38° Northeast 229 264 8,500 -840 Descending Denver Center
08:49AM 39.8664 -104.4036 334° Northwest 200 230 8,000 -660 Descending Denver Center
08:50AM 39.8833 -104.4500 295° West 189 217 7,400 -780 Descending Denver TRACON
08:51AM 39.8833 -104.5167 270° West 181 208 6,700 -780 Descending Denver TRACON
08:52AM 39.8833 -104.5833 270° West 153 176 5,900 -660 Descending Denver TRACON
08:53AM 39.8772 -104.6386 262° West 146 168 5,300 -480 Descending Denver Center
08:55AM 39.8500 -104.6667 270° West  Level FlightAware Approximate
09:02AM 39.8617 -104.6732 270° West  Level Estimated
09:03AM 39.8617 -104.6732 270° West  Level Estimated